»·PEaware :: N90FL KLVK-KLSN

N90FL :: KLVK-KLSN

FLIGHT INFORMATION

Flight Status: Arrived
Operator: Privately registered:
United States
More flights under this callsign
Pilot: Pratham R. (19019)
Aircraft: CESSNA 152 AEROBAT
(C152)
More flights by this aircraft type
Origin: KLVK Livermore Mun
United States
Destination: KLSN Los Banos Mun
United States
More flights between these airports :: More routes between these airports
Route:
File this flight plan on PilotEdge
Remarks:
Altitude:
(Current/Filed)
5,500ft
Speed:
(Current/Filed)
0kts
Departed: 13-Jan-21 09:09 PM
Arrived: 13-Jan-21 09:46 PM
Distance/Time
Traveled:
59nm/0:37
Distance/Time
To Go:
Arrived

Flight Plot

Page will automatically refresh every two minutes.

Flight plan parsing failed; only flown route is shown


Map Options




Map Legend


Flown Route
Filed Route
Departure Airport
Arrival Airport
Navaid (VOR, NDB)
Fix

Horizontal Profiles

Position Reports

Time Latitude Longitude Heading Altitude Ground
Speed
13-Jan-21 21:08 37.709287 -121.709282 76 3728ft 80kts
13-Jan-21 21:09 37.716484 -121.682787 65 4406ft 82kts
13-Jan-21 21:10 37.714671 -121.654489 107 5083ft 84kts
13-Jan-21 21:11 37.706281 -121.626413 108 5684ft 86kts
13-Jan-21 21:12 37.699117 -121.597477 106 6297ft 87kts
13-Jan-21 21:13 37.692848 -121.567329 100 6838ft 90kts
13-Jan-21 21:14 37.685730 -121.536363 112 7352ft 94kts
13-Jan-21 21:15 37.678070 -121.502111 102 7478ft 107kts
13-Jan-21 21:16 37.669206 -121.466546 127 7431ft 109kts
13-Jan-21 21:17 37.651280 -121.435697 123 7471ft 107kts
13-Jan-21 21:18 37.633447 -121.404781 128 7480ft 108kts
13-Jan-21 21:19 37.613633 -121.375748 133 7538ft 109kts
13-Jan-21 21:20 37.592003 -121.348422 132 7552ft 111kts
13-Jan-21 21:21 37.571425 -121.319436 131 7007ft 109kts
13-Jan-21 21:21 37.554838 -121.296075 130 5968ft 107kts
13-Jan-21 21:23 37.531249 -121.265335 134 5558ft 102kts
13-Jan-21 21:24 37.509277 -121.241931 140 5611ft 104kts
13-Jan-21 21:24 37.491340 -121.221340 134 5607ft 105kts
13-Jan-21 21:26 37.473587 -121.205021 143 5571ft 105kts
13-Jan-21 21:26 37.453346 -121.188055 143 5590ft 105kts
13-Jan-21 21:27 37.429010 -121.166798 142 5513ft 104kts
13-Jan-21 21:28 37.405869 -121.145785 141 5513ft 103kts
13-Jan-21 21:29 37.382882 -121.124492 139 5515ft 102kts
13-Jan-21 21:30 37.360041 -121.103152 142 5556ft 101kts
13-Jan-21 21:31 37.336728 -121.083148 147 5567ft 103kts
13-Jan-21 21:32 37.313738 -121.062077 141 5569ft 103kts
13-Jan-21 21:33 37.290352 -121.041340 143 5583ft 103kts
13-Jan-21 21:34 37.268172 -121.018207 142 5591ft 106kts
13-Jan-21 21:35 37.245330 -120.998120 147 5685ft 101kts
13-Jan-21 21:36 37.217492 -120.980397 146 5484ft 113kts
13-Jan-21 21:37 37.190751 -120.960917 147 4665ft 106kts
13-Jan-21 21:38 37.165324 -120.944206 149 4178ft 101kts
13-Jan-21 21:39 37.139888 -120.928289 154 3682ft 101kts
13-Jan-21 21:40 37.114080 -120.915031 161 2986ft 98kts
13-Jan-21 21:41 37.088574 -120.911873 193 1994ft 84kts
13-Jan-21 21:42 37.071149 -120.901813 111 1111ft 79kts
13-Jan-21 21:43 37.059880 -120.880869 161 793ft 83kts
13-Jan-21 21:44 37.049412 -120.865368 55 441ft 71kts
13-Jan-21 21:45 37.064097 -120.870042 334 126ft 36kts
13-Jan-21 21:46 37.068291 -120.873303 232 125ft 15kts
13-Jan-21 21:47 37.068023 -120.873431 167 125ft 2kts
13-Jan-21 21:48 37.068023 -120.873431 167 125ft 2kts
13-Jan-21 21:49 37.068023 -120.873431 167 125ft 2kts
13-Jan-21 21:50 37.068023 -120.873431 167 125ft 2kts
13-Jan-21 21:51 37.068023 -120.873431 167 125ft 2kts
13-Jan-21 21:52 37.068023 -120.873431 167 125ft 2kts
13-Jan-21 21:53 37.068023 -120.873431 167 125ft 2kts
13-Jan-21 21:54 37.068023 -120.873431 167 125ft 2kts
13-Jan-21 21:55 37.068023 -120.873431 167 125ft 2kts
13-Jan-21 21:56 37.068023 -120.873431 167 125ft 2kts
13-Jan-21 21:57 37.068023 -120.873431 167 125ft 2kts
13-Jan-21 21:58 37.068023 -120.873431 167 125ft 2kts
13-Jan-21 21:59 37.068023 -120.873431 167 125ft 2kts
13-Jan-21 22:00 37.068023 -120.873431 167 125ft 2kts

Navigation Log

Ident Type
Flight plan parsing failed, navigation log unavailable